sensor_id;sensor_type;location;lat;lon;timestamp;pressure;altitude;pressure_sealevel;temperature
76476;BMP280;65308;50.078;14.854;2023-05-20T00:00:34;99816.97;;;11.98
76476;BMP280;65308;50.078;14.854;2023-05-20T00:03:00;99805.63;;;11.81
76476;BMP280;65308;50.078;14.854;2023-05-20T00:05:27;99809.03;;;11.82
76476;BMP280;65308;50.078;14.854;2023-05-20T00:07:54;99811.06;;;11.90
76476;BMP280;65308;50.078;14.854;2023-05-20T00:10:20;99804.72;;;11.97
76476;BMP280;65308;50.078;14.854;2023-05-20T00:12:47;99810.75;;;12.01
76476;BMP280;65308;50.078;14.854;2023-05-20T00:15:15;99808.25;;;12.07
76476;BMP280;65308;50.078;14.854;2023-05-20T00:17:42;99810.38;;;12.12
76476;BMP280;65308;50.078;14.854;2023-05-20T00:20:09;99813.09;;;11.99
76476;BMP280;65308;50.078;14.854;2023-05-20T00:22:35;99812.56;;;12.04
76476;BMP280;65308;50.078;14.854;2023-05-20T00:25:02;99804.72;;;11.97
76476;BMP280;65308;50.078;14.854;2023-05-20T00:27:29;99806.38;;;11.82
76476;BMP280;65308;50.078;14.854;2023-05-20T00:29:56;99811.44;;;11.79
76476;BMP280;65308;50.078;14.854;2023-05-20T00:32:24;99812.81;;;11.84
76476;BMP280;65308;50.078;14.854;2023-05-20T00:34:55;99804.72;;;11.97
76476;BMP280;65308;50.078;14.854;2023-05-20T00:37:22;99805.25;;;12.04
76476;BMP280;65308;50.078;14.854;2023-05-20T00:39:49;99809.78;;;12.08
76476;BMP280;65308;50.078;14.854;2023-05-20T00:42:19;99819.00;;;12.19
76476;BMP280;65308;50.078;14.854;2023-05-20T00:44:46;99819.50;;;12.27
76476;BMP280;65308;50.078;14.854;2023-05-20T00:47:13;99811.63;;;12.33
76476;BMP280;65308;50.078;14.854;2023-05-20T00:49:42;99813.44;;;12.36
76476;BMP280;65308;50.078;14.854;2023-05-20T00:52:08;99814.19;;;12.36
76476;BMP280;65308;50.078;14.854;2023-05-20T00:54:35;99816.66;;;12.43
76476;BMP280;65308;50.078;14.854;2023-05-20T00:57:04;99812.81;;;12.32
76476;BMP280;65308;50.078;14.854;2023-05-20T00:59:32;99808.44;;;12.25
76476;BMP280;65308;50.078;14.854;2023-05-20T01:01:59;99809.41;;;12.18
76476;BMP280;65308;50.078;14.854;2023-05-20T01:04:26;99801.97;;;12.00
76476;BMP280;65308;50.078;14.854;2023-05-20T01:06:54;99805.38;;;12.01
76476;BMP280;65308;50.078;14.854;2023-05-20T01:09:21;99800.25;;;11.94
76476;BMP280;65308;50.078;14.854;2023-05-20T01:11:51;99785.44;;;11.89
76476;BMP280;65308;50.078;14.854;2023-05-20T01:14:23;99787.47;;;11.85
76476;BMP280;65308;50.078;14.854;2023-05-20T01:16:52;99784.78;;;11.85
76476;BMP280;65308;50.078;14.854;2023-05-20T01:19:30;99783.81;;;11.92
76476;BMP280;65308;50.078;14.854;2023-05-20T01:22:00;99777.81;;;12.00
76476;BMP280;65308;50.078;14.854;2023-05-20T01:24:28;99779.50;;;12.07
76476;BMP280;65308;50.078;14.854;2023-05-20T01:26:55;99781.78;;;11.96
76476;BMP280;65308;50.078;14.854;2023-05-20T01:29:22;99774.97;;;12.04
76476;BMP280;65308;50.078;14.854;2023-05-20T01:31:49;99772.81;;;12.12
76476;BMP280;65308;50.078;14.854;2023-05-20T01:34:17;99774.53;;;12.18
76476;BMP280;65308;50.078;14.854;2023-05-20T01:36:44;99767.69;;;12.04
76476;BMP280;65308;50.078;14.854;2023-05-20T01:39:12;99756.88;;;11.83
76476;BMP280;65308;50.078;14.854;2023-05-20T01:41:40;99765.38;;;11.81
76476;BMP280;65308;50.078;14.854;2023-05-20T01:44:07;99759.28;;;11.80
76476;BMP280;65308;50.078;14.854;2023-05-20T01:46:34;99764.13;;;11.73
76476;BMP280;65308;50.078;14.854;2023-05-20T01:49:00;99758.00;;;11.47
76476;BMP280;65308;50.078;14.854;2023-05-20T01:51:27;99760.69;;;11.47
76476;BMP280;65308;50.078;14.854;2023-05-20T01:53:55;99750.59;;;11.64
76476;BMP280;65308;50.078;14.854;2023-05-20T01:56:21;99760.34;;;11.70
76476;BMP280;65308;50.078;14.854;2023-05-20T01:58:49;99764.84;;;11.73
76476;BMP280;65308;50.078;14.854;2023-05-20T02:01:16;99755.41;;;11.82
76476;BMP280;65308;50.078;14.854;2023-05-20T02:03:43;99750.69;;;11.73
76476;BMP280;65308;50.078;14.854;2023-05-20T02:06:09;99748.06;;;11.60
76476;BMP280;65308;50.078;14.854;2023-05-20T02:08:36;99753.06;;;11.71
76476;BMP280;65308;50.078;14.854;2023-05-20T02:11:03;99757.78;;;11.79
76476;BMP280;65308;50.078;14.854;2023-05-20T02:13:30;99756.25;;;11.78
76476;BMP280;65308;50.078;14.854;2023-05-20T02:15:58;99748.22;;;11.78
76476;BMP280;65308;50.078;14.854;2023-05-20T02:18:24;99750.47;;;11.80
76476;BMP280;65308;50.078;14.854;2023-05-20T02:20:51;99742.00;;;11.82
76476;BMP280;65308;50.078;14.854;2023-05-20T02:23:18;99745.53;;;11.78
76476;BMP280;65308;50.078;14.854;2023-05-20T02:25:44;99745.97;;;11.77
76476;BMP280;65308;50.078;14.854;2023-05-20T02:28:11;99738.69;;;11.77
76476;BMP280;65308;50.078;14.854;2023-05-20T02:30:38;99740.84;;;11.70
76476;BMP280;65308;50.078;14.854;2023-05-20T02:33:06;99737.72;;;11.71
76476;BMP280;65308;50.078;14.854;2023-05-20T02:35:34;99730.53;;;11.68
76476;BMP280;65308;50.078;14.854;2023-05-20T02:38:00;99736.44;;;11.63
76476;BMP280;65308;50.078;14.854;2023-05-20T02:40:27;99733.13;;;11.59
76476;BMP280;65308;50.078;14.854;2023-05-20T02:42:53;99730.31;;;11.63
76476;BMP280;65308;50.078;14.854;2023-05-20T02:45:20;99727.66;;;11.63
76476;BMP280;65308;50.078;14.854;2023-05-20T02:47:46;99723.91;;;11.60
76476;BMP280;65308;50.078;14.854;2023-05-20T02:50:14;99730.13;;;11.57
76476;BMP280;65308;50.078;14.854;2023-05-20T02:52:41;99722.41;;;11.59
76476;BMP280;65308;50.078;14.854;2023-05-20T02:55:08;99732.69;;;11.48
76476;BMP280;65308;50.078;14.854;2023-05-20T02:57:35;99737.84;;;11.42
76476;BMP280;65308;50.078;14.854;2023-05-20T03:00:03;99738.81;;;11.36
76476;BMP280;65308;50.078;14.854;2023-05-20T03:02:30;99751.34;;;11.26
76476;BMP280;65308;50.078;14.854;2023-05-20T03:04:56;99744.94;;;11.23
76476;BMP280;65308;50.078;14.854;2023-05-20T03:07:24;99738.06;;;11.22
76476;BMP280;65308;50.078;14.854;2023-05-20T03:09:51;99735.69;;;11.24
76476;BMP280;65308;50.078;14.854;2023-05-20T03:12:18;99732.84;;;11.31
76476;BMP280;65308;50.078;14.854;2023-05-20T03:14:44;99735.03;;;11.33
76476;BMP280;65308;50.078;14.854;2023-05-20T03:17:11;99736.56;;;11.34
76476;BMP280;65308;50.078;14.854;2023-05-20T03:19:37;99736.78;;;11.40
76476;BMP280;65308;50.078;14.854;2023-05-20T03:22:04;99742.47;;;11.42
76476;BMP280;65308;50.078;14.854;2023-05-20T03:24:32;99734.94;;;11.49
76476;BMP280;65308;50.078;14.854;2023-05-20T03:26:59;99740.22;;;11.53
76476;BMP280;65308;50.078;14.854;2023-05-20T03:29:26;99745.66;;;11.62
76476;BMP280;65308;50.078;14.854;2023-05-20T03:31:53;99749.28;;;11.68
76476;BMP280;65308;50.078;14.854;2023-05-20T03:34:19;99742.75;;;11.69
76476;BMP280;65308;50.078;14.854;2023-05-20T03:36:46;99746.72;;;11.77
76476;BMP280;65308;50.078;14.854;2023-05-20T03:39:13;99736.63;;;11.82
76476;BMP280;65308;50.078;14.854;2023-05-20T03:41:41;99754.56;;;11.72
76476;BMP280;65308;50.078;14.854;2023-05-20T03:44:08;99755.41;;;11.69
76476;BMP280;65308;50.078;14.854;2023-05-20T03:46:34;99752.81;;;11.78
76476;BMP280;65308;50.078;14.854;2023-05-20T03:49:01;99753.03;;;11.84
76476;BMP280;65308;50.078;14.854;2023-05-20T03:51:28;99753.75;;;11.97
76476;BMP280;65308;50.078;14.854;2023-05-20T03:53:55;99753.34;;;11.98
76476;BMP280;65308;50.078;14.854;2023-05-20T03:56:22;99748.06;;;11.95
76476;BMP280;65308;50.078;14.854;2023-05-20T03:58:50;99738.53;;;11.94
76476;BMP280;65308;50.078;14.854;2023-05-20T04:01:16;99732.44;;;11.80
76476;BMP280;65308;50.078;14.854;2023-05-20T04:03:43;99737.25;;;11.86
76476;BMP280;65308;50.078;14.854;2023-05-20T04:06:11;99733.72;;;11.89
76476;BMP280;65308;50.078;14.854;2023-05-20T04:08:38;99736.03;;;11.99
76476;BMP280;65308;50.078;14.854;2023-05-20T04:11:05;99739.88;;;12.11
76476;BMP280;65308;50.078;14.854;2023-05-20T04:13:35;99753.50;;;12.17
76476;BMP280;65308;50.078;14.854;2023-05-20T04:16:05;99745.63;;;12.22
76476;BMP280;65308;50.078;14.854;2023-05-20T04:18:33;99747.25;;;12.42
76476;BMP280;65308;50.078;14.854;2023-05-20T04:21:03;99748.88;;;12.61
76476;BMP280;65308;50.078;14.854;2023-05-20T04:23:29;99757.31;;;13.44
76476;BMP280;65308;50.078;14.854;2023-05-20T04:25:57;99765.66;;;14.41
76476;BMP280;65308;50.078;14.854;2023-05-20T04:28:26;99767.69;;;15.40
76476;BMP280;65308;50.078;14.854;2023-05-20T04:30:57;99764.22;;;16.41
76476;BMP280;65308;50.078;14.854;2023-05-20T04:33:26;99761.84;;;17.34
76476;BMP280;65308;50.078;14.854;2023-05-20T04:35:53;99762.91;;;18.03
76476;BMP280;65308;50.078;14.854;2023-05-20T04:38:23;99755.00;;;18.31
76476;BMP280;65308;50.078;14.854;2023-05-20T04:40:54;99756.72;;;19.09
76476;BMP280;65308;50.078;14.854;2023-05-20T04:43:22;99753.25;;;19.96
76476;BMP280;65308;50.078;14.854;2023-05-20T04:45:49;99764.06;;;20.69
76476;BMP280;65308;50.078;14.854;2023-05-20T04:51:03;99753.00;;;22.02
76476;BMP280;65308;50.078;14.854;2023-05-20T04:53:29;99755.56;;;22.43
76476;BMP280;65308;50.078;14.854;2023-05-20T04:55:58;99759.72;;;23.31
76476;BMP280;65308;50.078;14.854;2023-05-20T04:58:25;99760.28;;;24.07
76476;BMP280;65308;50.078;14.854;2023-05-20T05:00:53;99750.38;;;24.57
76476;BMP280;65308;50.078;14.854;2023-05-20T05:03:20;99749.91;;;25.26
76476;BMP280;65308;50.078;14.854;2023-05-20T05:05:47;99746.91;;;26.08
76476;BMP280;65308;50.078;14.854;2023-05-20T05:08:16;99746.63;;;26.63
76476;BMP280;65308;50.078;14.854;2023-05-20T05:10:47;99742.66;;;27.02
76476;BMP280;65308;50.078;14.854;2023-05-20T05:13:15;99748.22;;;27.55
76476;BMP280;65308;50.078;14.854;2023-05-20T05:15:43;99744.81;;;28.10
76476;BMP280;65308;50.078;14.854;2023-05-20T05:18:10;99752.19;;;28.80
76476;BMP280;65308;50.078;14.854;2023-05-20T05:20:37;99752.16;;;29.38
76476;BMP280;65308;50.078;14.854;2023-05-20T05:23:04;99747.84;;;29.96
76476;BMP280;65308;50.078;14.854;2023-05-20T05:25:33;99740.84;;;30.13
76476;BMP280;65308;50.078;14.854;2023-05-20T05:28:00;99750.69;;;30.50
76476;BMP280;65308;50.078;14.854;2023-05-20T05:30:26;99746.91;;;30.55
76476;BMP280;65308;50.078;14.854;2023-05-20T05:32:53;99740.84;;;30.30
76476;BMP280;65308;50.078;14.854;2023-05-20T05:35:20;99744.44;;;30.06
76476;BMP280;65308;50.078;14.854;2023-05-20T05:37:46;99754.25;;;30.16
76476;BMP280;65308;50.078;14.854;2023-05-20T05:40:13;99748.72;;;30.60
76476;BMP280;65308;50.078;14.854;2023-05-20T05:42:43;99747.19;;;30.77
76476;BMP280;65308;50.078;14.854;2023-05-20T05:45:10;99752.31;;;30.90
76476;BMP280;65308;50.078;14.854;2023-05-20T05:47:37;99754.13;;;31.14
76476;BMP280;65308;50.078;14.854;2023-05-20T05:50:04;99752.09;;;32.21
76476;BMP280;65308;50.078;14.854;2023-05-20T05:52:31;99752.72;;;32.00
76476;BMP280;65308;50.078;14.854;2023-05-20T05:54:57;99743.66;;;30.76
76476;BMP280;65308;50.078;14.854;2023-05-20T05:57:24;99739.34;;;30.46
76476;BMP280;65308;50.078;14.854;2023-05-20T06:00:02;99737.44;;;30.76
76476;BMP280;65308;50.078;14.854;2023-05-20T06:02:35;99739.09;;;29.14
76476;BMP280;65308;50.078;14.854;2023-05-20T06:05:02;99737.22;;;27.71
76476;BMP280;65308;50.078;14.854;2023-05-20T06:07:29;99722.84;;;26.29
76476;BMP280;65308;50.078;14.854;2023-05-20T06:09:56;99723.97;;;25.27
76476;BMP280;65308;50.078;14.854;2023-05-20T06:12:26;99717.03;;;24.45
76476;BMP280;65308;50.078;14.854;2023-05-20T06:14:54;99709.75;;;23.81
76476;BMP280;65308;50.078;14.854;2023-05-20T06:17:21;99705.84;;;22.94
76476;BMP280;65308;50.078;14.854;2023-05-20T06:19:48;99716.13;;;21.95
76476;BMP280;65308;50.078;14.854;2023-05-20T06:22:16;99704.03;;;22.15
76476;BMP280;65308;50.078;14.854;2023-05-20T06:24:46;99707.13;;;21.76
76476;BMP280;65308;50.078;14.854;2023-05-20T06:27:20;99698.13;;;21.15
76476;BMP280;65308;50.078;14.854;2023-05-20T06:29:47;99713.66;;;21.20
76476;BMP280;65308;50.078;14.854;2023-05-20T06:32:15;99713.09;;;21.33
76476;BMP280;65308;50.078;14.854;2023-05-20T06:34:42;99719.06;;;21.67
76476;BMP280;65308;50.078;14.854;2023-05-20T06:37:18;99731.50;;;22.47
76476;BMP280;65308;50.078;14.854;2023-05-20T06:39:44;99727.22;;;22.03
76476;BMP280;65308;50.078;14.854;2023-05-20T06:42:15;99731.25;;;22.21
76476;BMP280;65308;50.078;14.854;2023-05-20T06:44:42;99726.09;;;22.85
76476;BMP280;65308;50.078;14.854;2023-05-20T06:47:08;99733.66;;;24.07
76476;BMP280;65308;50.078;14.854;2023-05-20T06:49:37;99703.63;;;23.30
76476;BMP280;65308;50.078;14.854;2023-05-20T06:52:04;99706.41;;;22.49
76476;BMP280;65308;50.078;14.854;2023-05-20T06:54:32;99700.59;;;22.15
76476;BMP280;65308;50.078;14.854;2023-05-20T06:57:04;99702.03;;;21.91
76476;BMP280;65308;50.078;14.854;2023-05-20T06:59:31;99699.88;;;21.84
76476;BMP280;65308;50.078;14.854;2023-05-20T07:01:57;99702.72;;;21.97
76476;BMP280;65308;50.078;14.854;2023-05-20T07:04:25;99706.03;;;22.15
76476;BMP280;65308;50.078;14.854;2023-05-20T07:06:52;99701.97;;;22.89
76476;BMP280;65308;50.078;14.854;2023-05-20T07:09:19;99701.34;;;23.79
76476;BMP280;65308;50.078;14.854;2023-05-20T07:11:46;99696.47;;;25.61
76476;BMP280;65308;50.078;14.854;2023-05-20T07:14:12;99713.03;;;26.05
76476;BMP280;65308;50.078;14.854;2023-05-20T07:16:39;99703.34;;;28.08
76476;BMP280;65308;50.078;14.854;2023-05-20T07:19:12;99716.47;;;28.98
76476;BMP280;65308;50.078;14.854;2023-05-20T07:21:52;99717.56;;;30.97
76476;BMP280;65308;50.078;14.854;2023-05-20T07:24:25;99707.34;;;32.15
76476;BMP280;65308;50.078;14.854;2023-05-20T07:26:56;99707.31;;;31.74
76476;BMP280;65308;50.078;14.854;2023-05-20T07:29:24;99711.00;;;32.58
76476;BMP280;65308;50.078;14.854;2023-05-20T07:31:54;99702.59;;;32.47
76476;BMP280;65308;50.078;14.854;2023-05-20T07:34:21;99700.94;;;32.22
76476;BMP280;65308;50.078;14.854;2023-05-20T07:36:49;99666.75;;;30.73
76476;BMP280;65308;50.078;14.854;2023-05-20T07:39:17;99661.13;;;28.78
76476;BMP280;65308;50.078;14.854;2023-05-20T07:41:44;99686.91;;;30.29
76476;BMP280;65308;50.078;14.854;2023-05-20T07:44:14;99686.84;;;30.83
76476;BMP280;65308;50.078;14.854;2023-05-20T07:46:46;99694.34;;;32.27
76476;BMP280;65308;50.078;14.854;2023-05-20T07:49:18;99679.50;;;33.84
76476;BMP280;65308;50.078;14.854;2023-05-20T07:51:54;99688.31;;;34.74
76476;BMP280;65308;50.078;14.854;2023-05-20T07:59:45;99672.78;;;34.10
76476;BMP280;65308;50.078;14.854;2023-05-20T08:02:12;99681.59;;;35.80
76476;BMP280;65308;50.078;14.854;2023-05-20T08:04:38;99676.75;;;36.93
76476;BMP280;65308;50.078;14.854;2023-05-20T08:07:05;99670.41;;;36.76
76476;BMP280;65308;50.078;14.854;2023-05-20T08:09:33;99670.63;;;36.23
76476;BMP280;65308;50.078;14.854;2023-05-20T08:12:05;99674.38;;;36.57
76476;BMP280;65308;50.078;14.854;2023-05-20T08:17:06;99669.91;;;35.56
76476;BMP280;65308;50.078;14.854;2023-05-20T08:19:33;99661.38;;;35.27
76476;BMP280;65308;50.078;14.854;2023-05-20T08:21:59;99668.31;;;36.90
76476;BMP280;65308;50.078;14.854;2023-05-20T08:24:26;99681.13;;;36.82
76476;BMP280;65308;50.078;14.854;2023-05-20T08:26:54;99666.50;;;37.27
76476;BMP280;65308;50.078;14.854;2023-05-20T08:29:21;99665.94;;;37.93
76476;BMP280;65308;50.078;14.854;2023-05-20T08:31:48;99670.16;;;37.15
76476;BMP280;65308;50.078;14.854;2023-05-20T08:34:16;99668.53;;;36.24
76476;BMP280;65308;50.078;14.854;2023-05-20T08:36:42;99676.06;;;35.94
76476;BMP280;65308;50.078;14.854;2023-05-20T08:39:10;99673.66;;;34.73
76476;BMP280;65308;50.078;14.854;2023-05-20T08:41:38;99664.97;;;36.65
76476;BMP280;65308;50.078;14.854;2023-05-20T08:44:05;99663.88;;;36.29
76476;BMP280;65308;50.078;14.854;2023-05-20T08:46:33;99659.78;;;36.02
76476;BMP280;65308;50.078;14.854;2023-05-20T08:49:01;99655.22;;;34.54
76476;BMP280;65308;50.078;14.854;2023-05-20T08:51:31;99648.03;;;33.13
76476;BMP280;65308;50.078;14.854;2023-05-20T08:53:58;99656.59;;;33.83
76476;BMP280;65308;50.078;14.854;2023-05-20T08:56:26;99649.97;;;33.44
76476;BMP280;65308;50.078;14.854;2023-05-20T08:58:53;99649.97;;;33.11
76476;BMP280;65308;50.078;14.854;2023-05-20T09:01:24;99639.22;;;33.38
76476;BMP280;65308;50.078;14.854;2023-05-20T09:06:41;99631.66;;;32.84
76476;BMP280;65308;50.078;14.854;2023-05-20T09:09:09;99635.06;;;32.73
76476;BMP280;65308;50.078;14.854;2023-05-20T09:11:40;99626.31;;;32.67
76476;BMP280;65308;50.078;14.854;2023-05-20T09:14:07;99624.56;;;32.71
76476;BMP280;65308;50.078;14.854;2023-05-20T09:16:34;99622.16;;;31.94
76476;BMP280;65308;50.078;14.854;2023-05-20T09:19:01;99628.25;;;31.62
76476;BMP280;65308;50.078;14.854;2023-05-20T09:21:35;99638.84;;;32.16
76476;BMP280;65308;50.078;14.854;2023-05-20T09:24:03;99619.19;;;31.80
76476;BMP280;65308;50.078;14.854;2023-05-20T09:26:30;99619.47;;;30.69
76476;BMP280;65308;50.078;14.854;2023-05-20T09:28:57;99612.53;;;28.91
76476;BMP280;65308;50.078;14.854;2023-05-20T09:31:25;99614.09;;;28.76
76476;BMP280;65308;50.078;14.854;2023-05-20T09:33:53;99632.09;;;28.28
76476;BMP280;65308;50.078;14.854;2023-05-20T09:36:21;99615.72;;;27.11
76476;BMP280;65308;50.078;14.854;2023-05-20T09:38:51;99619.22;;;27.04
76476;BMP280;65308;50.078;14.854;2023-05-20T09:41:21;99627.72;;;27.69
76476;BMP280;65308;50.078;14.854;2023-05-20T09:43:53;99623.69;;;28.18
76476;BMP280;65308;50.078;14.854;2023-05-20T09:46:20;99616.25;;;26.56
76476;BMP280;65308;50.078;14.854;2023-05-20T09:48:47;99607.59;;;25.00
76476;BMP280;65308;50.078;14.854;2023-05-20T09:51:15;99604.91;;;24.87
76476;BMP280;65308;50.078;14.854;2023-05-20T09:53:41;99616.09;;;23.94
76476;BMP280;65308;50.078;14.854;2023-05-20T09:56:10;99602.75;;;24.51
76476;BMP280;65308;50.078;14.854;2023-05-20T09:58:37;99603.94;;;24.63
76476;BMP280;65308;50.078;14.854;2023-05-20T10:01:04;99602.78;;;24.93
76476;BMP280;65308;50.078;14.854;2023-05-20T10:03:31;99598.78;;;24.39
76476;BMP280;65308;50.078;14.854;2023-05-20T10:06:11;99599.91;;;24.77
76476;BMP280;65308;50.078;14.854;2023-05-20T10:09:10;99585.53;;;24.30
76476;BMP280;65308;50.078;14.854;2023-05-20T10:11:46;99590.84;;;23.61
76476;BMP280;65308;50.078;14.854;2023-05-20T10:14:33;99588.34;;;24.03
76476;BMP280;65308;50.078;14.854;2023-05-20T10:17:08;99569.13;;;24.85
76476;BMP280;65308;50.078;14.854;2023-05-20T10:19:37;99590.41;;;25.20
76476;BMP280;65308;50.078;14.854;2023-05-20T10:22:03;99573.47;;;25.01
76476;BMP280;65308;50.078;14.854;2023-05-20T10:24:32;99571.31;;;24.65
76476;BMP280;65308;50.078;14.854;2023-05-20T10:27:02;99567.50;;;24.89
76476;BMP280;65308;50.078;14.854;2023-05-20T10:29:29;99566.50;;;25.00
76476;BMP280;65308;50.078;14.854;2023-05-20T10:32:07;99573.78;;;24.76
76476;BMP280;65308;50.078;14.854;2023-05-20T10:34:44;99556.63;;;24.76
76476;BMP280;65308;50.078;14.854;2023-05-20T10:37:21;99552.72;;;24.30
76476;BMP280;65308;50.078;14.854;2023-05-20T10:39:48;99553.38;;;24.22
76476;BMP280;65308;50.078;14.854;2023-05-20T10:42:26;99555.94;;;23.94
76476;BMP280;65308;50.078;14.854;2023-05-20T10:44:53;99552.28;;;24.26
76476;BMP280;65308;50.078;14.854;2023-05-20T10:47:23;99559.53;;;23.89
76476;BMP280;65308;50.078;14.854;2023-05-20T10:49:51;99546.25;;;23.93
76476;BMP280;65308;50.078;14.854;2023-05-20T10:52:18;99549.81;;;24.14
76476;BMP280;65308;50.078;14.854;2023-05-20T10:54:45;99544.06;;;24.39
76476;BMP280;65308;50.078;14.854;2023-05-20T10:57:13;99542.06;;;24.05
76476;BMP280;65308;50.078;14.854;2023-05-20T10:59:45;99537.19;;;24.11
76476;BMP280;65308;50.078;14.854;2023-05-20T11:02:15;99530.97;;;24.45
76476;BMP280;65308;50.078;14.854;2023-05-20T11:04:42;99523.25;;;24.36
76476;BMP280;65308;50.078;14.854;2023-05-20T11:07:23;99516.78;;;24.12
76476;BMP280;65308;50.078;14.854;2023-05-20T11:09:52;99523.72;;;24.13
76476;BMP280;65308;50.078;14.854;2023-05-20T11:12:20;99516.50;;;24.37
76476;BMP280;65308;50.078;14.854;2023-05-20T11:14:48;99517.91;;;23.70
76476;BMP280;65308;50.078;14.854;2023-05-20T11:17:15;99519.31;;;23.97
76476;BMP280;65308;50.078;14.854;2023-05-20T11:19:43;99519.84;;;24.43
76476;BMP280;65308;50.078;14.854;2023-05-20T11:22:10;99511.38;;;24.75
76476;BMP280;65308;50.078;14.854;2023-05-20T11:24:36;99514.88;;;24.41
76476;BMP280;65308;50.078;14.854;2023-05-20T11:27:03;99506.47;;;24.39
76476;BMP280;65308;50.078;14.854;2023-05-20T11:29:30;99506.63;;;24.00
76476;BMP280;65308;50.078;14.854;2023-05-20T11:31:59;99511.63;;;24.43
76476;BMP280;65308;50.078;14.854;2023-05-20T11:34:32;99501.63;;;24.66
76476;BMP280;65308;50.078;14.854;2023-05-20T11:36:59;99503.88;;;24.75
76476;BMP280;65308;50.078;14.854;2023-05-20T11:39:29;99497.19;;;25.05
76476;BMP280;65308;50.078;14.854;2023-05-20T11:41:56;99496.16;;;24.45
76476;BMP280;65308;50.078;14.854;2023-05-20T11:44:23;99487.94;;;24.66
76476;BMP280;65308;50.078;14.854;2023-05-20T11:46:50;99496.00;;;24.93
76476;BMP280;65308;50.078;14.854;2023-05-20T11:49:18;99492.16;;;24.96
76476;BMP280;65308;50.078;14.854;2023-05-20T11:51:45;99486.69;;;25.24
76476;BMP280;65308;50.078;14.854;2023-05-20T11:54:12;99492.44;;;25.42
76476;BMP280;65308;50.078;14.854;2023-05-20T11:56:39;99502.31;;;25.88
76476;BMP280;65308;50.078;14.854;2023-05-20T11:59:08;99489.53;;;25.40
76476;BMP280;65308;50.078;14.854;2023-05-20T12:01:37;99475.69;;;25.17
76476;BMP280;65308;50.078;14.854;2023-05-20T12:04:05;99482.94;;;24.57
76476;BMP280;65308;50.078;14.854;2023-05-20T12:09:06;99468.25;;;24.47
76476;BMP280;65308;50.078;14.854;2023-05-20T12:11:34;99465.03;;;24.56
76476;BMP280;65308;50.078;14.854;2023-05-20T12:14:01;99471.09;;;24.41
76476;BMP280;65308;50.078;14.854;2023-05-20T12:16:29;99477.16;;;24.68
76476;BMP280;65308;50.078;14.854;2023-05-20T12:18:56;99475.22;;;24.48
76476;BMP280;65308;50.078;14.854;2023-05-20T12:21:23;99462.44;;;24.50
76476;BMP280;65308;50.078;14.854;2023-05-20T12:23:50;99465.19;;;24.71
76476;BMP280;65308;50.078;14.854;2023-05-20T12:26:23;99456.13;;;24.84
76476;BMP280;65308;50.078;14.854;2023-05-20T12:28:50;99465.63;;;24.62
76476;BMP280;65308;50.078;14.854;2023-05-20T12:31:16;99462.97;;;24.49
76476;BMP280;65308;50.078;14.854;2023-05-20T12:33:48;99464.25;;;24.27
76476;BMP280;65308;50.078;14.854;2023-05-20T12:36:28;99456.91;;;24.22
76476;BMP280;65308;50.078;14.854;2023-05-20T12:38:55;99459.09;;;24.65
76476;BMP280;65308;50.078;14.854;2023-05-20T12:41:27;99454.25;;;24.30
76476;BMP280;65308;50.078;14.854;2023-05-20T12:43:55;99448.03;;;24.50
76476;BMP280;65308;50.078;14.854;2023-05-20T12:46:21;99444.47;;;24.84
76476;BMP280;65308;50.078;14.854;2023-05-20T12:48:48;99448.44;;;24.83
76476;BMP280;65308;50.078;14.854;2023-05-20T12:51:17;99432.50;;;25.02
76476;BMP280;65308;50.078;14.854;2023-05-20T12:53:46;99438.53;;;25.00
76476;BMP280;65308;50.078;14.854;2023-05-20T12:56:12;99424.44;;;24.96
76476;BMP280;65308;50.078;14.854;2023-05-20T12:58:40;99426.66;;;24.98
76476;BMP280;65308;50.078;14.854;2023-05-20T13:01:07;99430.09;;;24.91
76476;BMP280;65308;50.078;14.854;2023-05-20T13:03:34;99430.75;;;25.12
76476;BMP280;65308;50.078;14.854;2023-05-20T13:06:00;99425.31;;;25.79
76476;BMP280;65308;50.078;14.854;2023-05-20T13:08:27;99435.50;;;25.55
76476;BMP280;65308;50.078;14.854;2023-05-20T13:10:54;99429.44;;;25.42
76476;BMP280;65308;50.078;14.854;2023-05-20T13:13:21;99435.97;;;25.39
76476;BMP280;65308;50.078;14.854;2023-05-20T13:15:49;99428.41;;;25.60
76476;BMP280;65308;50.078;14.854;2023-05-20T13:18:16;99423.09;;;25.62
76476;BMP280;65308;50.078;14.854;2023-05-20T13:20:43;99429.78;;;26.20
76476;BMP280;65308;50.078;14.854;2023-05-20T13:23:12;99424.13;;;26.26
76476;BMP280;65308;50.078;14.854;2023-05-20T13:25:42;99417.31;;;25.88
76476;BMP280;65308;50.078;14.854;2023-05-20T13:28:09;99407.59;;;25.65
76476;BMP280;65308;50.078;14.854;2023-05-20T13:30:37;99411.09;;;25.29
76476;BMP280;65308;50.078;14.854;2023-05-20T13:33:05;99411.06;;;25.14
76476;BMP280;65308;50.078;14.854;2023-05-20T13:35:32;99411.81;;;25.22
76476;BMP280;65308;50.078;14.854;2023-05-20T13:37:59;99409.47;;;25.33
76476;BMP280;65308;50.078;14.854;2023-05-20T13:40:26;99393.44;;;25.38
76476;BMP280;65308;50.078;14.854;2023-05-20T13:42:53;99396.53;;;25.42
76476;BMP280;65308;50.078;14.854;2023-05-20T13:45:19;99397.56;;;25.23
76476;BMP280;65308;50.078;14.854;2023-05-20T13:47:46;99401.88;;;25.55
76476;BMP280;65308;50.078;14.854;2023-05-20T13:50:14;99383.47;;;25.63
76476;BMP280;65308;50.078;14.854;2023-05-20T13:52:41;99392.41;;;25.63
76476;BMP280;65308;50.078;14.854;2023-05-20T13:55:08;99403.34;;;25.12
76476;BMP280;65308;50.078;14.854;2023-05-20T13:57:35;99383.94;;;24.95
76476;BMP280;65308;50.078;14.854;2023-05-20T14:00:03;99401.78;;;24.88
76476;BMP280;65308;50.078;14.854;2023-05-20T14:02:30;99396.38;;;25.03
76476;BMP280;65308;50.078;14.854;2023-05-20T14:04:56;99386.31;;;25.42
76476;BMP280;65308;50.078;14.854;2023-05-20T14:07:24;99393.41;;;25.30
76476;BMP280;65308;50.078;14.854;2023-05-20T14:09:53;99390.34;;;25.41
76476;BMP280;65308;50.078;14.854;2023-05-20T14:12:20;99388.03;;;25.17
76476;BMP280;65308;50.078;14.854;2023-05-20T14:14:48;99385.63;;;25.13
76476;BMP280;65308;50.078;14.854;2023-05-20T14:17:15;99370.81;;;25.01